UAL1434 KSFO-KSAN
Flight info
| Callsign | UAL1434 |
|---|---|
| Flight time | 1h 14m |
| Altitude | 35000 |
| Route | WESLA5 YYUNG LAX COMIX2 |
| Aircraft | B738/M-SDE2E3FGHIRWXY/LB1 |
Departure
| Time | 2026-04-24 22:39 |
|---|---|
| Airport | San Francisco International Airport (KSFO) |
Arrival
| Time | 2026-04-24 23:54 |
|---|---|
| Airport | San Diego International Airport (KSAN) |
| Time | Latitude | Longitude | Altitude | Speed | Heading |
|---|---|---|---|---|---|
| 2026-04-24 22:17 | 37.61978 | -122.38404 | 21 ft | 0 kts | 217° |
| 2026-04-24 22:30 | 37.61986 | -122.38397 | 21 ft | 4 kts | 217° |
| 2026-04-24 22:31 | 37.62005 | -122.38379 | 22 ft | 3 kts | 216° |
| 2026-04-24 22:31 | 37.62025 | -122.38367 | 23 ft | 4 kts | 162° |
| 2026-04-24 22:31 | 37.62043 | -122.38387 | 21 ft | 4 kts | 119° |
| 2026-04-24 22:31 | 37.62055 | -122.38415 | 21 ft | 4 kts | 118° |
| 2026-04-24 22:32 | 37.62061 | -122.38430 | 21 ft | 0 kts | 118° |
| 2026-04-24 22:34 | 37.62057 | -122.38421 | 21 ft | 4 kts | 118° |
| 2026-04-24 22:34 | 37.62036 | -122.38371 | 23 ft | 8 kts | 118° |
| 2026-04-24 22:34 | 37.62005 | -122.38297 | 21 ft | 11 kts | 118° |
| 2026-04-24 22:35 | 37.61965 | -122.38201 | 21 ft | 14 kts | 118° |
| 2026-04-24 22:35 | 37.61916 | -122.38084 | 22 ft | 16 kts | 118° |
| 2026-04-24 22:35 | 37.61858 | -122.37947 | 21 ft | 19 kts | 118° |
| 2026-04-24 22:35 | 37.61804 | -122.37784 | 21 ft | 21 kts | 110° |
| 2026-04-24 22:36 | 37.61747 | -122.37600 | 21 ft | 23 kts | 111° |
| 2026-04-24 22:36 | 37.61679 | -122.37416 | 23 ft | 23 kts | 118° |
| 2026-04-24 22:36 | 37.61605 | -122.37240 | 23 ft | 22 kts | 118° |
| 2026-04-24 22:36 | 37.61534 | -122.37069 | 21 ft | 22 kts | 117° |
| 2026-04-24 22:37 | 37.61456 | -122.36909 | 21 ft | 21 kts | 132° |
| 2026-04-24 22:37 | 37.61362 | -122.36771 | 21 ft | 20 kts | 125° |
| 2026-04-24 22:37 | 37.61297 | -122.36614 | 22 ft | 20 kts | 116° |
| 2026-04-24 22:37 | 37.61234 | -122.36462 | 21 ft | 19 kts | 119° |
| 2026-04-24 22:38 | 37.61170 | -122.36317 | 22 ft | 19 kts | 119° |
| 2026-04-24 22:38 | 37.61111 | -122.36175 | 23 ft | 18 kts | 117° |
| 2026-04-24 22:38 | 37.61164 | -122.36065 | 24 ft | 17 kts | 27° |
| 2026-04-24 22:38 | 37.61267 | -122.36068 | 22 ft | 17 kts | 303° |
| 2026-04-24 22:39 | 37.61417 | -122.36425 | 22 ft | 81 kts | 298° |
| 2026-04-24 22:39 | 37.61775 | -122.37290 | 21 ft | 139 kts | 299° |
| 2026-04-24 22:39 | 37.62281 | -122.38513 | 261 ft | 165 kts | 296° |
| 2026-04-24 22:39 | 37.62844 | -122.39822 | 859 ft | 173 kts | 298° |
| 2026-04-24 22:40 | 37.63447 | -122.41156 | 1560 ft | 176 kts | 299° |
| 2026-04-24 22:40 | 37.64020 | -122.42538 | 2229 ft | 179 kts | 295° |
| 2026-04-24 22:40 | 37.64632 | -122.44025 | 2500 ft | 203 kts | 299° |
| 2026-04-24 22:40 | 37.65350 | -122.45627 | 2723 ft | 221 kts | 299° |
| 2026-04-24 22:41 | 37.66123 | -122.47352 | 3112 ft | 230 kts | 299° |
| 2026-04-24 22:41 | 37.66821 | -122.49214 | 3504 ft | 245 kts | 281° |
| 2026-04-24 22:41 | 37.66685 | -122.51374 | 4089 ft | 255 kts | 250° |
| 2026-04-24 22:41 | 37.65675 | -122.53227 | 4794 ft | 262 kts | 222° |
| 2026-04-24 22:42 | 37.64043 | -122.54281 | 5506 ft | 270 kts | 194° |
| 2026-04-24 22:42 | 37.62151 | -122.54241 | 6230 ft | 278 kts | 168° |
| 2026-04-24 22:42 | 37.60315 | -122.53433 | 6957 ft | 282 kts | 159° |
| 2026-04-24 22:42 | 37.58505 | -122.52430 | 7685 ft | 286 kts | 158° |
| 2026-04-24 22:43 | 37.56700 | -122.51431 | 8430 ft | 289 kts | 158° |
| 2026-04-24 22:43 | 37.54842 | -122.50444 | 9200 ft | 292 kts | 159° |
| 2026-04-24 22:43 | 37.52952 | -122.49472 | 9967 ft | 295 kts | 159° |
| 2026-04-24 22:43 | 37.51017 | -122.48490 | 10479 ft | 309 kts | 160° |
| 2026-04-24 22:44 | 37.48896 | -122.47632 | 10648 ft | 331 kts | 175° |
| 2026-04-24 22:44 | 37.46583 | -122.47800 | 11193 ft | 337 kts | 190° |
| 2026-04-24 22:44 | 37.44250 | -122.48243 | 11910 ft | 341 kts | 191° |
| 2026-04-24 22:44 | 37.41893 | -122.48710 | 12662 ft | 344 kts | 191° |
| 2026-04-24 22:45 | 37.39517 | -122.49178 | 13413 ft | 348 kts | 191° |
| 2026-04-24 22:45 | 37.37143 | -122.49638 | 14143 ft | 352 kts | 190° |
| 2026-04-24 22:45 | 37.34708 | -122.50103 | 14890 ft | 356 kts | 190° |
| 2026-04-24 22:45 | 37.32252 | -122.50566 | 15633 ft | 359 kts | 190° |
| 2026-04-24 22:46 | 37.29765 | -122.51031 | 16363 ft | 363 kts | 190° |
| 2026-04-24 22:46 | 37.27253 | -122.51498 | 17063 ft | 367 kts | 190° |
| 2026-04-24 22:46 | 37.24712 | -122.51969 | 17750 ft | 371 kts | 190° |
| 2026-04-24 22:46 | 37.22146 | -122.52445 | 18420 ft | 375 kts | 190° |
| 2026-04-24 22:47 | 37.19552 | -122.52925 | 19069 ft | 378 kts | 190° |
| 2026-04-24 22:47 | 37.16936 | -122.53409 | 19707 ft | 382 kts | 190° |
| 2026-04-24 22:47 | 37.14326 | -122.53891 | 20318 ft | 386 kts | 190° |
| 2026-04-24 22:47 | 37.11661 | -122.54383 | 20928 ft | 389 kts | 190° |
| 2026-04-24 22:48 | 37.08968 | -122.54880 | 21506 ft | 393 kts | 190° |
| 2026-04-24 22:48 | 37.06250 | -122.55382 | 22076 ft | 396 kts | 190° |
| 2026-04-24 22:48 | 37.03510 | -122.55885 | 22626 ft | 400 kts | 189° |
| 2026-04-24 22:48 | 37.00718 | -122.55886 | 23110 ft | 407 kts | 170° |
| 2026-04-24 22:49 | 36.98046 | -122.54684 | 23646 ft | 412 kts | 152° |
| 2026-04-24 22:49 | 36.95554 | -122.52890 | 24193 ft | 415 kts | 150° |
| 2026-04-24 22:49 | 36.93069 | -122.51025 | 24655 ft | 419 kts | 150° |
| 2026-04-24 22:49 | 36.90599 | -122.49157 | 25102 ft | 422 kts | 149° |
| 2026-04-24 22:50 | 36.88074 | -122.47254 | 25570 ft | 425 kts | 150° |
| 2026-04-24 22:50 | 36.85527 | -122.45351 | 26025 ft | 428 kts | 150° |
| 2026-04-24 22:50 | 36.82961 | -122.43449 | 26466 ft | 431 kts | 150° |
| 2026-04-24 22:50 | 36.80373 | -122.41541 | 26890 ft | 434 kts | 150° |
| 2026-04-24 22:51 | 36.77762 | -122.39625 | 27297 ft | 436 kts | 150° |
| 2026-04-24 22:51 | 36.75138 | -122.37703 | 27696 ft | 439 kts | 150° |
| 2026-04-24 22:51 | 36.72495 | -122.35771 | 28086 ft | 442 kts | 150° |
| 2026-04-24 22:51 | 36.69871 | -122.33854 | 28459 ft | 444 kts | 150° |
| 2026-04-24 22:52 | 36.67199 | -122.31903 | 28823 ft | 447 kts | 150° |
| 2026-04-24 22:52 | 36.64509 | -122.29941 | 29179 ft | 449 kts | 150° |
| 2026-04-24 22:52 | 36.61806 | -122.27970 | 29524 ft | 452 kts | 150° |
| 2026-04-24 22:52 | 36.59086 | -122.25989 | 29859 ft | 454 kts | 150° |
| 2026-04-24 22:53 | 36.56355 | -122.24000 | 30182 ft | 456 kts | 150° |
| 2026-04-24 22:53 | 36.53610 | -122.22004 | 30537 ft | 457 kts | 150° |
| 2026-04-24 22:53 | 36.50869 | -122.20011 | 30984 ft | 456 kts | 150° |
| 2026-04-24 22:53 | 36.48176 | -122.18055 | 31451 ft | 453 kts | 150° |
| 2026-04-24 22:54 | 36.45456 | -122.16082 | 31869 ft | 452 kts | 150° |
| 2026-04-24 22:54 | 36.42739 | -122.14112 | 32231 ft | 452 kts | 150° |
| 2026-04-24 22:54 | 36.40019 | -122.12142 | 32597 ft | 452 kts | 150° |
| 2026-04-24 22:54 | 36.37306 | -122.10178 | 32990 ft | 451 kts | 150° |
| 2026-04-24 22:55 | 36.34598 | -122.08220 | 33374 ft | 450 kts | 150° |
| 2026-04-24 22:55 | 36.31897 | -122.06268 | 33723 ft | 449 kts | 150° |
| 2026-04-24 22:55 | 36.29197 | -122.04319 | 34057 ft | 449 kts | 150° |
| 2026-04-24 22:55 | 36.26536 | -122.02399 | 34387 ft | 449 kts | 150° |
| 2026-04-24 22:56 | 36.23839 | -122.00455 | 34712 ft | 448 kts | 150° |
| 2026-04-24 22:56 | 36.21146 | -121.98515 | 35023 ft | 448 kts | 150° |
| 2026-04-24 22:56 | 36.15704 | -121.94600 | 35039 ft | 454 kts | 150° |
| 2026-04-24 22:57 | 36.10279 | -121.90702 | 35026 ft | 447 kts | 150° |
| 2026-04-24 22:57 | 36.04918 | -121.86856 | 35044 ft | 446 kts | 150° |
| 2026-04-24 22:58 | 35.99695 | -121.82830 | 35015 ft | 448 kts | 137° |
| 2026-04-24 22:58 | 35.95824 | -121.76829 | 35035 ft | 448 kts | 127° |
| 2026-04-24 22:59 | 35.92049 | -121.70696 | 35040 ft | 449 kts | 128° |
| 2026-04-24 23:00 | 35.86328 | -121.61575 | 35038 ft | 451 kts | 128° |
| 2026-04-24 23:00 | 35.82475 | -121.55471 | 35039 ft | 451 kts | 128° |
| 2026-04-24 23:01 | 35.78617 | -121.49368 | 35036 ft | 452 kts | 128° |
| 2026-04-24 23:01 | 35.74754 | -121.43265 | 35036 ft | 451 kts | 128° |
| 2026-04-24 23:02 | 35.70919 | -121.37216 | 35037 ft | 451 kts | 128° |
| 2026-04-24 23:02 | 35.67058 | -121.31137 | 35036 ft | 451 kts | 128° |
| 2026-04-24 23:03 | 35.63196 | -121.25068 | 35036 ft | 450 kts | 128° |
| 2026-04-24 23:03 | 35.59340 | -121.19018 | 35037 ft | 449 kts | 128° |
| 2026-04-24 23:04 | 35.55486 | -121.12979 | 35039 ft | 449 kts | 128° |
| 2026-04-24 23:04 | 35.51659 | -121.06995 | 35036 ft | 448 kts | 128° |
| 2026-04-24 23:05 | 35.47955 | -121.00834 | 35038 ft | 449 kts | 126° |
| 2026-04-24 23:05 | 35.44380 | -120.94565 | 35034 ft | 448 kts | 125° |
| 2026-04-24 23:06 | 35.40798 | -120.88309 | 35039 ft | 448 kts | 126° |
| 2026-04-24 23:06 | 35.37214 | -120.82118 | 35038 ft | 448 kts | 126° |
| 2026-04-24 23:07 | 35.33590 | -120.75897 | 35034 ft | 448 kts | 126° |
| 2026-04-24 23:07 | 35.29962 | -120.69685 | 35037 ft | 449 kts | 126° |
| 2026-04-24 23:08 | 35.26327 | -120.63474 | 35037 ft | 449 kts | 126° |
| 2026-04-24 23:08 | 35.22714 | -120.57307 | 35036 ft | 449 kts | 126° |
| 2026-04-24 23:09 | 35.19073 | -120.51102 | 35038 ft | 449 kts | 126° |
| 2026-04-24 23:09 | 35.15426 | -120.44901 | 35037 ft | 449 kts | 126° |
| 2026-04-24 23:10 | 35.11775 | -120.38702 | 35035 ft | 449 kts | 126° |
| 2026-04-24 23:10 | 35.08120 | -120.32507 | 35038 ft | 449 kts | 126° |
| 2026-04-24 23:11 | 35.04487 | -120.26361 | 35037 ft | 449 kts | 126° |
| 2026-04-24 23:11 | 35.00826 | -120.20178 | 35038 ft | 449 kts | 126° |
| 2026-04-24 23:12 | 34.97162 | -120.14001 | 35036 ft | 449 kts | 126° |
| 2026-04-24 23:12 | 34.93495 | -120.07830 | 35040 ft | 449 kts | 126° |
| 2026-04-24 23:13 | 34.89853 | -120.01711 | 35039 ft | 449 kts | 126° |
| 2026-04-24 23:13 | 34.86184 | -119.95558 | 35037 ft | 449 kts | 126° |
| 2026-04-24 23:14 | 34.82514 | -119.89413 | 35039 ft | 449 kts | 126° |
| 2026-04-24 23:14 | 34.78843 | -119.83277 | 35036 ft | 449 kts | 126° |
| 2026-04-24 23:15 | 34.75192 | -119.77186 | 35036 ft | 448 kts | 126° |
| 2026-04-24 23:15 | 34.71514 | -119.71060 | 35038 ft | 448 kts | 126° |
| 2026-04-24 23:16 | 34.67834 | -119.64941 | 35041 ft | 448 kts | 126° |
| 2026-04-24 23:16 | 34.64150 | -119.58826 | 35034 ft | 448 kts | 127° |
| 2026-04-24 23:17 | 34.60463 | -119.52717 | 35037 ft | 448 kts | 127° |
| 2026-04-24 23:17 | 34.56799 | -119.46655 | 35037 ft | 449 kts | 127° |
| 2026-04-24 23:18 | 34.53106 | -119.40558 | 35032 ft | 448 kts | 127° |
| 2026-04-24 23:18 | 34.49411 | -119.34465 | 35039 ft | 448 kts | 127° |
| 2026-04-24 23:19 | 34.45715 | -119.28382 | 35037 ft | 448 kts | 127° |
| 2026-04-24 23:19 | 34.42042 | -119.22349 | 35038 ft | 448 kts | 127° |
| 2026-04-24 23:20 | 34.38339 | -119.16275 | 35034 ft | 448 kts | 127° |
| 2026-04-24 23:20 | 34.34629 | -119.10199 | 35038 ft | 448 kts | 127° |
| 2026-04-24 23:21 | 34.30919 | -119.04134 | 35039 ft | 448 kts | 127° |
| 2026-04-24 23:21 | 34.27232 | -118.98117 | 35036 ft | 448 kts | 127° |
| 2026-04-24 23:22 | 34.23546 | -118.92111 | 34753 ft | 439 kts | 127° |
| 2026-04-24 23:22 | 34.21747 | -118.89185 | 34485 ft | 431 kts | 127° |
| 2026-04-24 23:22 | 34.19963 | -118.86284 | 34079 ft | 428 kts | 127° |
| 2026-04-24 23:22 | 34.18195 | -118.83411 | 33709 ft | 425 kts | 127° |
| 2026-04-24 23:23 | 34.16438 | -118.80559 | 33322 ft | 422 kts | 127° |
| 2026-04-24 23:23 | 34.14692 | -118.77728 | 32942 ft | 419 kts | 127° |
| 2026-04-24 23:23 | 34.12979 | -118.74951 | 32565 ft | 417 kts | 127° |
| 2026-04-24 23:23 | 34.11256 | -118.72160 | 32191 ft | 414 kts | 127° |
| 2026-04-24 23:24 | 34.09538 | -118.69380 | 31815 ft | 411 kts | 127° |
| 2026-04-24 23:24 | 34.07833 | -118.66623 | 31450 ft | 409 kts | 127° |
| 2026-04-24 23:24 | 34.06139 | -118.63885 | 31082 ft | 406 kts | 127° |
| 2026-04-24 23:24 | 34.04452 | -118.61161 | 30722 ft | 404 kts | 127° |
| 2026-04-24 23:25 | 34.02776 | -118.58457 | 30358 ft | 401 kts | 127° |
| 2026-04-24 23:25 | 34.01111 | -118.55772 | 30008 ft | 399 kts | 127° |
| 2026-04-24 23:25 | 33.99458 | -118.53109 | 29655 ft | 396 kts | 127° |
| 2026-04-24 23:25 | 33.97840 | -118.50503 | 29297 ft | 393 kts | 127° |
| 2026-04-24 23:26 | 33.96206 | -118.47873 | 28933 ft | 390 kts | 127° |
| 2026-04-24 23:26 | 33.94590 | -118.45276 | 28580 ft | 387 kts | 127° |
| 2026-04-24 23:26 | 33.92968 | -118.42697 | 28222 ft | 384 kts | 129° |
| 2026-04-24 23:26 | 33.91218 | -118.40280 | 27893 ft | 381 kts | 133° |
| 2026-04-24 23:27 | 33.89404 | -118.37972 | 27529 ft | 378 kts | 134° |
| 2026-04-24 23:27 | 33.87586 | -118.35694 | 27172 ft | 376 kts | 134° |
| 2026-04-24 23:27 | 33.85800 | -118.33439 | 26823 ft | 374 kts | 134° |
| 2026-04-24 23:27 | 33.84013 | -118.31155 | 26485 ft | 371 kts | 134° |
| 2026-04-24 23:28 | 33.82258 | -118.28893 | 26136 ft | 369 kts | 134° |
| 2026-04-24 23:28 | 33.80538 | -118.26670 | 25810 ft | 366 kts | 133° |
| 2026-04-24 23:28 | 33.78809 | -118.24435 | 25466 ft | 364 kts | 134° |
| 2026-04-24 23:28 | 33.77093 | -118.22213 | 25135 ft | 362 kts | 133° |
| 2026-04-24 23:29 | 33.75399 | -118.19994 | 24799 ft | 359 kts | 133° |
| 2026-04-24 23:29 | 33.73718 | -118.17783 | 24465 ft | 357 kts | 133° |
| 2026-04-24 23:29 | 33.72048 | -118.15583 | 24134 ft | 355 kts | 133° |
| 2026-04-24 23:29 | 33.70389 | -118.13400 | 23801 ft | 353 kts | 133° |
| 2026-04-24 23:30 | 33.68739 | -118.11232 | 23476 ft | 351 kts | 133° |
| 2026-04-24 23:30 | 33.67096 | -118.09075 | 23150 ft | 349 kts | 133° |
| 2026-04-24 23:30 | 33.65485 | -118.06963 | 22830 ft | 347 kts | 133° |
| 2026-04-24 23:30 | 33.63862 | -118.04837 | 22506 ft | 345 kts | 133° |
| 2026-04-24 23:31 | 33.62246 | -118.02720 | 22183 ft | 343 kts | 133° |
| 2026-04-24 23:31 | 33.60641 | -118.00620 | 21848 ft | 341 kts | 133° |
| 2026-04-24 23:31 | 33.59044 | -117.98530 | 21541 ft | 339 kts | 133° |
| 2026-04-24 23:31 | 33.57452 | -117.96449 | 21221 ft | 337 kts | 133° |
| 2026-04-24 23:32 | 33.55872 | -117.94386 | 20901 ft | 336 kts | 133° |
| 2026-04-24 23:32 | 33.54275 | -117.92352 | 20616 ft | 334 kts | 136° |
| 2026-04-24 23:32 | 33.52614 | -117.90411 | 20327 ft | 334 kts | 137° |
| 2026-04-24 23:32 | 33.50948 | -117.88510 | 20008 ft | 338 kts | 137° |
| 2026-04-24 23:33 | 33.49225 | -117.86542 | 19687 ft | 346 kts | 137° |
| 2026-04-24 23:33 | 33.48050 | -117.85190 | 19452 ft | 348 kts | 137° |
| 2026-04-24 23:33 | 33.45748 | -117.82527 | 18986 ft | 346 kts | 136° |
| 2026-04-24 23:33 | 33.44023 | -117.80530 | 18640 ft | 344 kts | 137° |
| 2026-04-24 23:34 | 33.42275 | -117.78592 | 18303 ft | 342 kts | 139° |
| 2026-04-24 23:34 | 33.40505 | -117.76707 | 17969 ft | 339 kts | 139° |
| 2026-04-24 23:34 | 33.38739 | -117.74844 | 17631 ft | 337 kts | 139° |
| 2026-04-24 23:34 | 33.36987 | -117.72992 | 17305 ft | 335 kts | 139° |
| 2026-04-24 23:35 | 33.35271 | -117.71170 | 16960 ft | 333 kts | 139° |
| 2026-04-24 23:35 | 33.33544 | -117.69333 | 16632 ft | 332 kts | 139° |
| 2026-04-24 23:35 | 33.31823 | -117.67498 | 16283 ft | 331 kts | 139° |
| 2026-04-24 23:35 | 33.30108 | -117.65669 | 15941 ft | 329 kts | 139° |
| 2026-04-24 23:36 | 33.28401 | -117.63849 | 15602 ft | 328 kts | 139° |
| 2026-04-24 23:36 | 33.26702 | -117.62039 | 15265 ft | 327 kts | 139° |
| 2026-04-24 23:36 | 33.25009 | -117.60238 | 14942 ft | 325 kts | 139° |
| 2026-04-24 23:36 | 33.23324 | -117.58456 | 14636 ft | 322 kts | 139° |
| 2026-04-24 23:37 | 33.21647 | -117.56691 | 14336 ft | 321 kts | 140° |
| 2026-04-24 23:37 | 33.19975 | -117.54934 | 14042 ft | 320 kts | 140° |
| 2026-04-24 23:37 | 33.16670 | -117.51457 | 13454 ft | 318 kts | 140° |
| 2026-04-24 23:38 | 33.15011 | -117.49715 | 13162 ft | 317 kts | 140° |
| 2026-04-24 23:38 | 33.13345 | -117.47995 | 12867 ft | 316 kts | 143° |
| 2026-04-24 23:38 | 33.11568 | -117.46464 | 12575 ft | 315 kts | 147° |
| 2026-04-24 23:38 | 33.09758 | -117.45003 | 12286 ft | 313 kts | 147° |
| 2026-04-24 23:39 | 33.07961 | -117.43541 | 11996 ft | 312 kts | 147° |
| 2026-04-24 23:39 | 33.06176 | -117.42069 | 11702 ft | 311 kts | 146° |
| 2026-04-24 23:39 | 33.04402 | -117.40596 | 11421 ft | 310 kts | 146° |
| 2026-04-24 23:39 | 33.02641 | -117.39121 | 11135 ft | 309 kts | 146° |
| 2026-04-24 23:40 | 33.00913 | -117.37670 | 10857 ft | 307 kts | 146° |
| 2026-04-24 23:40 | 32.99170 | -117.36205 | 10560 ft | 306 kts | 146° |
| 2026-04-24 23:40 | 32.97434 | -117.34749 | 10280 ft | 304 kts | 146° |
| 2026-04-24 23:40 | 32.95715 | -117.33307 | 10004 ft | 301 kts | 146° |
| 2026-04-24 23:41 | 32.94023 | -117.31890 | 9918 ft | 291 kts | 146° |
| 2026-04-24 23:41 | 32.92360 | -117.30499 | 9499 ft | 295 kts | 146° |
| 2026-04-24 23:41 | 32.90706 | -117.29118 | 9200 ft | 287 kts | 146° |
| 2026-04-24 23:41 | 32.89096 | -117.27778 | 8925 ft | 278 kts | 146° |
| 2026-04-24 23:42 | 32.87556 | -117.26498 | 8669 ft | 271 kts | 146° |
| 2026-04-24 23:42 | 32.86012 | -117.25217 | 8432 ft | 270 kts | 146° |
| 2026-04-24 23:42 | 32.84475 | -117.23940 | 8182 ft | 269 kts | 146° |
| 2026-04-24 23:42 | 32.82945 | -117.22671 | 7938 ft | 268 kts | 146° |
| 2026-04-24 23:43 | 32.81501 | -117.21282 | 7666 ft | 268 kts | 128° |
| 2026-04-24 23:43 | 32.80706 | -117.19301 | 7451 ft | 266 kts | 106° |
| 2026-04-24 23:43 | 32.80236 | -117.17182 | 7205 ft | 265 kts | 104° |
| 2026-04-24 23:43 | 32.79795 | -117.15060 | 6943 ft | 265 kts | 103° |
| 2026-04-24 23:44 | 32.79352 | -117.12951 | 6572 ft | 269 kts | 104° |
| 2026-04-24 23:44 | 32.78894 | -117.10784 | 6210 ft | 272 kts | 103° |
| 2026-04-24 23:44 | 32.78489 | -117.08580 | 5873 ft | 274 kts | 101° |
| 2026-04-24 23:44 | 32.78104 | -117.06351 | 5523 ft | 276 kts | 101° |
| 2026-04-24 23:45 | 32.77722 | -117.04109 | 5184 ft | 278 kts | 101° |
| 2026-04-24 23:45 | 32.77342 | -117.01868 | 4998 ft | 273 kts | 101° |
| 2026-04-24 23:45 | 32.76976 | -116.99703 | 4966 ft | 261 kts | 101° |
| 2026-04-24 23:45 | 32.76626 | -116.97632 | 4944 ft | 248 kts | 101° |
| 2026-04-24 23:46 | 32.76295 | -116.95673 | 4959 ft | 238 kts | 101° |
| 2026-04-24 23:46 | 32.75971 | -116.93763 | 4992 ft | 235 kts | 101° |
| 2026-04-24 23:46 | 32.75651 | -116.91879 | 4982 ft | 237 kts | 101° |
| 2026-04-24 23:46 | 32.75323 | -116.89960 | 4974 ft | 237 kts | 103° |
| 2026-04-24 23:47 | 32.74624 | -116.88206 | 4895 ft | 238 kts | 132° |
| 2026-04-24 23:47 | 32.73259 | -116.87080 | 4496 ft | 243 kts | 164° |
| 2026-04-24 23:47 | 32.71630 | -116.86927 | 4242 ft | 231 kts | 188° |
| 2026-04-24 23:47 | 32.70083 | -116.87303 | 4181 ft | 223 kts | 202° |
| 2026-04-24 23:48 | 32.68873 | -116.88330 | 4173 ft | 213 kts | 238° |
| 2026-04-24 23:48 | 32.68190 | -116.89890 | 4174 ft | 215 kts | 251° |
| 2026-04-24 23:48 | 32.67700 | -116.91531 | 4169 ft | 211 kts | 253° |
| 2026-04-24 23:48 | 32.67306 | -116.93187 | 3958 ft | 207 kts | 267° |
| 2026-04-24 23:49 | 32.67580 | -116.94814 | 3768 ft | 200 kts | 289° |
| 2026-04-24 23:49 | 32.67965 | -116.96391 | 3632 ft | 202 kts | 284° |
| 2026-04-24 23:49 | 32.68323 | -116.98023 | 3575 ft | 204 kts | 285° |
| 2026-04-24 23:49 | 32.68694 | -116.99629 | 3540 ft | 200 kts | 286° |
| 2026-04-24 23:50 | 32.69065 | -117.01194 | 3346 ft | 195 kts | 286° |
| 2026-04-24 23:50 | 32.69432 | -117.02723 | 3078 ft | 190 kts | 286° |
| 2026-04-24 23:50 | 32.69786 | -117.04193 | 2787 ft | 185 kts | 286° |
| 2026-04-24 23:50 | 32.70138 | -117.05651 | 2495 ft | 182 kts | 286° |
| 2026-04-24 23:51 | 32.70480 | -117.07072 | 2224 ft | 175 kts | 286° |
| 2026-04-24 23:51 | 32.70806 | -117.08423 | 1954 ft | 165 kts | 286° |
| 2026-04-24 23:51 | 32.71113 | -117.09693 | 1730 ft | 152 kts | 286° |
| 2026-04-24 23:51 | 32.71392 | -117.10848 | 1469 ft | 140 kts | 286° |
| 2026-04-24 23:52 | 32.71654 | -117.11933 | 1281 ft | 135 kts | 286° |
| 2026-04-24 23:52 | 32.71911 | -117.12996 | 1072 ft | 134 kts | 286° |
| 2026-04-24 23:52 | 32.72170 | -117.14068 | 849 ft | 137 kts | 286° |
| 2026-04-24 23:52 | 32.72429 | -117.15141 | 659 ft | 137 kts | 286° |
| 2026-04-24 23:53 | 32.72697 | -117.16231 | 396 ft | 138 kts | 285° |
| 2026-04-24 23:53 | 32.72961 | -117.17323 | 145 ft | 137 kts | 283° |
| 2026-04-24 23:53 | 32.73217 | -117.18397 | 21 ft | 130 kts | 286° |
| 2026-04-24 23:53 | 32.73427 | -117.19256 | 20 ft | 70 kts | 287° |
| 2026-04-24 23:54 | 32.73525 | -117.19663 | 29 ft | 45 kts | 284° |
| 2026-04-24 23:54 | 32.73506 | -117.19849 | 24 ft | 10 kts | 251° |
| 2026-04-24 23:54 | 32.73481 | -117.19927 | 23 ft | 10 kts | 236° |
| 2026-04-24 23:54 | 32.73474 | -117.19937 | 22 ft | 1 kts | 227° |
| 2026-04-24 23:55 | 32.73468 | -117.19944 | 22 ft | 2 kts | 227° |
| 2026-04-24 23:55 | 32.73449 | -117.19955 | 22 ft | 5 kts | 195° |
| 2026-04-24 23:55 | 32.73404 | -117.19967 | 21 ft | 7 kts | 193° |
| 2026-04-24 23:55 | 32.73361 | -117.19994 | 21 ft | 7 kts | 236° |
| 2026-04-24 23:56 | 32.73351 | -117.20042 | 20 ft | 4 kts | 262° |
| 2026-04-24 23:56 | 32.73349 | -117.20058 | 20 ft | 0 kts | 261° |